Time;durP1;ratioP1;P1;durP2;ratioP2;P2;SDS_P1;SDS_P2;PMS_P1;PMS_P2;Temp;Humidity;BMP_temperature;BMP_pressure;BME280_temperature;BME280_humidity;BME280_pressure;Samples;Min_cycle;Max_cycle;Signal;HPM_P1;HPM_P2
2022/08/11 00:00:12;;;;;;;8.38;5.93;;;18.70;99.90;;;;;;5013340;28;20085;-62
2022/08/11 00:02:42;;;;;;;7.75;5.55;;;18.60;99.90;;;;;;5011807;28;20046;-62
2022/08/11 00:05:13;;;;;;;9.85;6.18;;;18.60;99.90;;;;;;5013643;28;20120;-62
2022/08/11 00:07:44;;;;;;;9.30;5.90;;;18.60;99.90;;;;;;5013129;28;20398;-63
2022/08/11 00:10:17;;;;;;;8.02;5.85;;;18.60;99.90;;;;;;5012303;28;20085;-62
2022/08/11 00:12:49;;;;;;;6.82;5.72;;;18.60;99.90;;;;;;5012979;28;20045;-61
2022/08/11 00:15:15;;;;;;;11.60;6.53;;;18.50;99.90;;;;;;5013230;28;20046;-61
2022/08/11 00:17:42;;;;;;;8.93;6.30;;;18.50;99.90;;;;;;5011450;28;20054;-62
2022/08/11 00:20:12;;;;;;;9.18;6.20;;;18.50;99.90;;;;;;5045050;28;20050;-60
2022/08/11 00:22:41;;;;;;;9.25;6.47;;;18.50;99.90;;;;;;5012871;28;20121;-62
2022/08/11 00:25:19;;;;;;;10.18;6.22;;;18.50;99.90;;;;;;5013157;28;20103;-62
2022/08/11 00:27:46;;;;;;;9.07;6.18;;;18.40;99.90;;;;;;5044544;28;20049;-62
2022/08/11 00:30:14;;;;;;;11.35;5.78;;;18.40;99.90;;;;;;5012883;28;20112;-62
2022/08/11 00:32:43;;;;;;;8.23;5.93;;;18.40;99.90;;;;;;5012499;28;20050;-63
2022/08/11 00:35:13;;;;;;;9.70;6.45;;;18.40;99.90;;;;;;5012930;28;20042;-62
2022/08/11 00:37:43;;;;;;;9.15;5.80;;;18.40;99.90;;;;;;5012921;28;20132;-62
2022/08/11 00:40:33;;;;;;;9.73;6.50;;;18.30;99.90;;;;;;5013159;28;20050;-62
2022/08/11 00:43:17;;;;;;;9.05;6.68;;;18.30;99.90;;;;;;5012106;28;20510;-62
2022/08/11 00:46:12;;;;;;;7.10;5.93;;;18.20;99.90;;;;;;5012704;28;20056;-62
2022/08/11 00:49:05;;;;;;;9.85;6.40;;;18.20;99.90;;;;;;5012623;28;20493;-63
2022/08/11 00:51:34;;;;;;;9.60;7.07;;;18.20;99.90;;;;;;5012600;28;20073;-63
2022/08/11 00:54:00;;;;;;;8.18;6.35;;;18.20;99.90;;;;;;5011182;28;20104;-62
2022/08/11 00:56:56;;;;;;;7.50;6.50;;;18.20;99.90;;;;;;5011316;28;20133;-63
2022/08/11 00:59:59;;;;;;;10.48;6.70;;;18.20;99.90;;;;;;5012953;28;20387;-62
2022/08/11 01:02:43;;;;;;;8.93;6.80;;;18.20;99.90;;;;;;5012279;28;20046;-62
2022/08/11 01:05:27;;;;;;;6.50;5.75;;;18.20;99.90;;;;;;5012095;28;20072;-62
2022/08/11 01:08:34;;;;;;;8.75;6.18;;;18.20;99.90;;;;;;5010932;28;20061;-63
2022/08/11 01:11:03;;;;;;;8.95;6.20;;;18.10;99.90;;;;;;5010975;28;20085;-62
2022/08/11 01:13:53;;;;;;;10.35;6.30;;;18.10;99.90;;;;;;5012119;28;20045;-62
2022/08/11 01:16:40;;;;;;;9.00;6.63;;;18.10;99.90;;;;;;5012303;28;20056;-62
2022/08/11 01:19:28;;;;;;;8.80;6.80;;;18.10;99.90;;;;;;5010612;28;20050;-62
2022/08/11 01:27:29;;;;;;;10.52;6.38;;;18.00;99.90;;;;;;5265590;23;20119;-62
2022/08/11 01:30:12;;;;;;;8.98;7.25;;;18.00;99.90;;;;;;5011685;28;20050;-62
2022/08/11 01:33:14;;;;;;;7.95;6.45;;;18.00;99.90;;;;;;5005682;28;20057;-62
2022/08/11 01:35:48;;;;;;;8.77;6.50;;;17.90;99.90;;;;;;5021106;28;20168;-63
2022/08/11 01:38:35;;;;;;;10.60;6.27;;;17.90;99.90;;;;;;5012834;28;20496;-65
2022/08/11 01:41:22;;;;;;;7.80;6.00;;;17.90;99.90;;;;;;5015376;28;20049;-62
2022/08/11 01:44:36;;;;;;;8.50;6.45;;;17.90;99.90;;;;;;5006221;28;20085;-62
2022/08/11 01:50:35;;;;;;;7.45;6.65;;;17.80;99.90;;;;;;5016754;28;20084;-68
2022/08/11 01:53:27;;;;;;;10.65;6.90;;;17.80;99.90;;;;;;5016278;28;20046;-62
2022/08/11 01:56:12;;;;;;;14.45;6.72;;;17.80;99.90;;;;;;5011585;28;20462;-61
2022/08/11 01:58:42;;;;;;;9.48;6.97;;;17.70;99.90;;;;;;4995664;28;20060;-61
2022/08/11 02:01:43;;;;;;;10.88;6.50;;;17.70;99.90;;;;;;5014333;28;20041;-61
2022/08/11 02:04:50;;;;;;;9.15;6.53;;;17.70;99.90;;;;;;5016553;28;20049;-62
2022/08/11 02:07:46;;;;;;;10.18;6.60;;;17.60;99.90;;;;;;5006294;28;20073;-63
2022/08/11 02:13:23;;;;;;;11.07;7.40;;;17.60;99.90;;;;;;5012028;28;20058;-62
2022/08/11 02:16:22;;;;;;;7.45;6.18;;;17.50;99.90;;;;;;5020098;28;20100;-62
2022/08/11 02:25:47;;;;;;;10.27;7.15;;;17.40;99.90;;;;;;5012644;28;20087;-62
2022/08/11 02:28:15;;;;;;;9.73;6.65;;;17.40;99.90;;;;;;4990048;28;20054;-62
2022/08/11 02:33:50;;;;;;;10.13;7.25;;;17.40;99.90;;;;;;5010862;28;20045;-62
2022/08/11 02:36:21;;;;;;;10.38;6.70;;;17.30;99.90;;;;;;4988924;28;20555;-62
2022/08/11 02:39:10;;;;;;;11.00;7.40;;;17.30;99.90;;;;;;5011995;28;20057;-62
2022/08/11 02:42:24;;;;;;;8.30;6.55;;;17.20;99.90;;;;;;5010105;28;20058;-63
2022/08/11 02:45:16;;;;;;;9.17;7.37;;;17.20;99.90;;;;;;5012783;28;20052;-63
2022/08/11 02:51:13;;;;;;;11.25;7.75;;;17.20;99.90;;;;;;5011630;28;20054;-62
2022/08/11 02:54:20;;;;;;;8.75;6.53;;;17.20;99.90;;;;;;5010726;28;20137;-63
2022/08/11 02:57:00;;;;;;;11.48;7.70;;;17.20;99.90;;;;;;5000146;28;20065;-63
2022/08/11 02:59:54;;;;;;;8.45;7.22;;;17.10;99.90;;;;;;5012922;28;20042;-64
2022/08/11 03:02:26;;;;;;;11.07;7.85;;;17.10;99.90;;;;;;5012680;28;20050;-62
2022/08/11 03:04:58;;;;;;;10.07;7.78;;;17.10;99.90;;;;;;5011667;28;20049;-62
2022/08/11 03:07:38;;;;;;;10.00;7.40;;;17.10;99.90;;;;;;5012132;28;20041;-62
2022/08/11 03:10:16;;;;;;;10.85;7.63;;;17.10;99.90;;;;;;5006528;28;20049;-62
2022/08/11 03:16:44;;;;;;;11.40;7.70;;;17.10;99.90;;;;;;5012673;28;20111;-62
2022/08/11 03:19:12;;;;;;;11.23;8.25;;;17.00;99.90;;;;;;5010252;28;20510;-62
2022/08/11 03:22:00;;;;;;;9.57;7.80;;;17.00;99.90;;;;;;5021302;28;20064;-62
2022/08/11 03:24:48;;;;;;;9.70;8.05;;;17.00;99.90;;;;;;5005670;28;20049;-62
2022/08/11 03:27:36;;;;;;;11.13;8.27;;;17.00;99.90;;;;;;5019897;28;20058;-61
2022/08/11 03:30:14;;;;;;;11.25;8.10;;;17.00;99.90;;;;;;5016134;28;20096;-62
2022/08/11 03:36:51;;;;;;;15.80;8.70;;;16.90;99.90;;;;;;5021052;28;20080;-62
2022/08/11 03:39:58;;;;;;;11.00;7.53;;;16.90;99.90;;;;;;4950602;29;20058;-62
2022/08/11 03:42:32;;;;;;;13.23;7.80;;;16.80;99.90;;;;;;5017407;28;20108;-62
2022/08/11 03:45:21;;;;;;;9.05;7.28;;;16.80;99.90;;;;;;5011252;28;20068;-62
2022/08/11 03:48:06;;;;;;;13.93;7.55;;;16.80;99.90;;;;;;5011126;28;20549;-62
2022/08/11 03:50:54;;;;;;;9.88;8.35;;;16.80;99.90;;;;;;5004770;28;20050;-62
2022/08/11 03:53:58;;;;;;;12.07;8.93;;;16.70;99.90;;;;;;5011605;28;20054;-62
2022/08/11 03:56:46;;;;;;;12.68;8.90;;;16.80;99.90;;;;;;5010953;28;20528;-63
2022/08/11 03:59:30;;;;;;;10.65;8.85;;;16.70;99.90;;;;;;5011612;28;20124;-62
2022/08/11 04:02:05;;;;;;;12.27;9.25;;;16.70;99.90;;;;;;5010144;28;20050;-62
2022/08/11 04:04:56;;;;;;;10.73;9.02;;;16.70;99.90;;;;;;5010226;28;20052;-63
2022/08/11 04:07:52;;;;;;;14.38;9.57;;;16.70;99.90;;;;;;5008628;28;20104;-62
2022/08/11 04:10:21;;;;;;;13.02;9.40;;;16.70;99.90;;;;;;5011971;28;20057;-62
2022/08/11 04:13:11;;;;;;;11.23;8.68;;;16.70;99.90;;;;;;5020613;28;20453;-61
2022/08/11 04:16:01;;;;;;;14.25;9.02;;;16.60;99.90;;;;;;5012759;28;20080;-64
2022/08/11 04:19:01;;;;;;;11.50;8.95;;;16.60;99.90;;;;;;5014107;28;20053;-61
2022/08/11 04:21:47;;;;;;;13.80;9.05;;;16.60;99.90;;;;;;5014012;28;20041;-62
2022/08/11 04:24:41;;;;;;;11.95;9.73;;;16.60;99.90;;;;;;5013706;28;20125;-63
2022/08/11 04:27:12;;;;;;;13.98;10.57;;;16.60;99.90;;;;;;5007221;28;20087;-62
2022/08/11 04:30:04;;;;;;;10.63;9.30;;;16.60;99.90;;;;;;5010549;28;20050;-64
2022/08/11 04:32:58;;;;;;;12.52;9.68;;;16.60;99.90;;;;;;5001659;28;20056;-62
2022/08/11 04:35:45;;;;;;;15.15;10.90;;;16.60;99.90;;;;;;4999955;28;20076;-62
2022/08/11 04:38:29;;;;;;;16.30;10.90;;;16.60;99.90;;;;;;4999038;28;20491;-63
2022/08/11 04:44:58;;;;;;;18.60;10.77;;;16.70;99.90;;;;;;5006204;28;20164;-61
2022/08/11 05:02:49;;;;;;;16.25;12.55;;;16.90;99.90;;;;;;5016640;28;20072;-62
2022/08/11 05:05:39;;;;;;;13.57;11.45;;;16.90;99.90;;;;;;5013084;28;20049;-62
2022/08/11 05:08:46;;;;;;;14.38;11.05;;;17.00;99.90;;;;;;5015048;28;20124;-63
2022/08/11 05:11:34;;;;;;;14.40;10.98;;;17.10;99.90;;;;;;5012232;28;20046;-62
2022/08/11 05:34:53;;;;;;;11.45;7.95;;;18.00;99.90;;;;;;5014361;28;20060;-62
2022/08/11 05:57:20;;;;;;;7.47;5.03;;;24.80;99.90;;;;;;5005923;28;20212;-62
2022/08/11 05:59:47;;;;;;;8.00;4.63;;;25.60;99.90;;;;;;5008678;28;20399;-63
2022/08/11 06:02:14;;;;;;;7.60;5.03;;;26.30;99.90;;;;;;5012071;28;20038;-62
2022/08/11 06:04:40;;;;;;;9.63;5.20;;;26.90;99.90;;;;;;5017123;28;20049;-63
2022/08/11 06:07:09;;;;;;;10.77;5.13;;;27.60;99.90;;;;;;5011840;28;20457;-63
2022/08/11 06:09:49;;;;;;;5.47;4.47;;;28.20;99.90;;;;;;5005610;28;20050;-63
2022/08/11 06:12:30;;;;;;;6.97;5.45;;;28.70;99.90;;;;;;5010346;28;20049;-62
2022/08/11 06:15:00;;;;;;;7.93;4.75;;;29.00;95.80;;;;;;4987702;28;20049;-64
2022/08/11 06:17:32;;;;;;;6.30;3.95;;;28.90;97.10;;;;;;5007097;28;20046;-62
2022/08/11 06:20:11;;;;;;;6.65;4.28;;;29.00;97.40;;;;;;5005751;28;20141;-64
2022/08/11 06:22:54;;;;;;;8.15;4.35;;;29.20;96.70;;;;;;5004769;28;20076;-64
2022/08/11 06:25:22;;;;;;;5.67;4.30;;;29.30;94.90;;;;;;5007910;28;20087;-63
2022/08/11 06:27:57;;;;;;;7.35;4.38;;;29.70;96.60;;;;;;5009197;28;20057;-64
2022/08/11 06:30:39;;;;;;;5.35;4.20;;;30.00;94.80;;;;;;5009970;28;20129;-63
2022/08/11 06:33:16;;;;;;;8.75;4.53;;;30.50;94.50;;;;;;5010893;28;20046;-64
2022/08/11 06:36:13;;;;;;;7.65;4.03;;;30.70;94.70;;;;;;5010440;28;20038;-63
2022/08/11 06:39:05;;;;;;;6.47;4.10;;;30.90;92.80;;;;;;5005764;28;20105;-63
2022/08/11 06:41:44;;;;;;;7.10;4.32;;;31.10;92.20;;;;;;4983676;28;20054;-63
2022/08/11 06:44:13;;;;;;;6.75;4.00;;;31.20;93.90;;;;;;5010828;28;20076;-63
2022/08/11 06:46:49;;;;;;;7.88;4.32;;;31.60;93.30;;;;;;5011984;28;20054;-63
2022/08/11 06:52:25;;;;;;;9.02;4.25;;;32.00;92.50;;;;;;5012595;28;20145;-66
2022/08/11 06:55:03;;;;;;;7.25;3.65;;;32.20;90.60;;;;;;5007183;28;20077;-64
2022/08/11 07:00:28;;;;;;;5.35;3.97;;;32.60;91.60;;;;;;5012141;28;20057;-64
2022/08/11 07:03:02;;;;;;;4.50;3.50;;;33.00;91.20;;;;;;5012232;28;20483;-63
2022/08/11 07:05:43;;;;;;;7.15;3.30;;;33.30;91.20;;;;;;5011561;28;20061;-64
2022/08/11 07:28:54;;;;;;;6.35;2.92;;;33.30;86.70;;;;;;4944004;29;20065;-63
2022/08/11 07:28:55;;;;;;;8.25;3.00;;;33.40;86.20;;;;;;5011082;28;20475;-63
2022/08/11 07:31:34;;;;;;;5.90;2.60;;;33.60;86.60;;;;;;4997048;28;20119;-63
2022/08/11 07:34:18;;;;;;;3.50;2.17;;;33.80;86.10;;;;;;5005569;28;20096;-64
2022/08/11 07:36:52;;;;;;;3.83;2.20;;;33.90;86.30;;;;;;5001302;28;20178;-64
2022/08/11 07:39:24;;;;;;;4.65;2.40;;;34.10;83.40;;;;;;4996179;28;20053;-66
2022/08/11 07:41:52;;;;;;;7.13;3.00;;;34.20;84.00;;;;;;5000408;28;20046;-63
2022/08/11 07:44:19;;;;;;;5.43;2.67;;;34.20;86.30;;;;;;5003322;28;20116;-63
2022/08/11 07:52:29;;;;;;;6.97;3.15;;;35.10;86.10;;;;;;5006270;28;20145;-62
2022/08/11 07:55:16;;;;;;;5.97;2.90;;;35.30;85.60;;;;;;5006398;28;20049;-62
2022/08/11 08:19:58;;;;;;;5.90;2.20;;;;;;;;;;5003308;28;20144;-62
2022/08/11 08:22:24;;;;;;;5.82;2.35;;;;;;;;;;5007796;28;20463;-63
2022/08/11 08:24:51;;;;;;;3.90;2.20;;;36.80;80.90;;;;;;5009277;28;20042;-64
2022/08/11 08:27:19;;;;;;;5.68;2.28;;;38.40;76.90;;;;;;5008062;28;20053;-63
2022/08/11 08:32:31;;;;;;;5.05;2.35;;;38.50;77.80;;;;;;5005994;28;20064;-64
2022/08/11 08:34:57;;;;;;;5.03;2.50;;;38.60;77.40;;;;;;5007689;28;20471;-65
2022/08/11 08:37:28;;;;;;;6.88;2.70;;;38.60;77.10;;;;;;5001559;28;20499;-63
2022/08/11 08:39:54;;;;;;;4.60;2.70;;;38.20;76.50;;;;;;4998260;28;20568;-63
2022/08/11 08:42:28;;;;;;;5.63;2.70;;;38.40;77.30;;;;;;4997172;28;20046;-63
2022/08/11 08:45:10;;;;;;;5.63;2.33;;;38.60;76.50;;;;;;5003111;28;20049;-65
2022/08/11 08:47:40;;;;;;;5.32;2.30;;;38.80;74.90;;;;;;4998897;28;20046;-64
2022/08/11 08:50:10;;;;;;;3.75;2.20;;;38.70;76.10;;;;;;4999762;28;20077;-64
2022/08/11 08:52:53;;;;;;;4.00;2.17;;;38.40;76.20;;;;;;5014286;28;20065;-64
2022/08/11 08:55:20;;;;;;;5.25;2.42;;;38.30;75.30;;;;;;5000526;28;20042;-64
2022/08/11 08:57:48;;;;;;;5.13;2.20;;;38.40;75.50;;;;;;4994079;28;20058;-64
2022/08/11 09:00:16;;;;;;;4.07;2.03;;;38.70;73.80;;;;;;5002799;28;20424;-67
2022/08/11 09:02:43;;;;;;;3.90;2.10;;;38.50;74.70;;;;;;4999895;28;20514;-64
2022/08/11 09:05:10;;;;;;;4.25;2.10;;;38.70;73.40;;;;;;5003009;28;20058;-63
2022/08/11 09:07:36;;;;;;;5.93;2.10;;;38.80;74.30;;;;;;5000178;28;20060;-63
2022/08/11 09:10:04;;;;;;;8.23;2.10;;;38.60;72.60;;;;;;5004429;28;20050;-63
2022/08/11 09:12:33;;;;;;;10.20;2.00;;;38.20;73.20;;;;;;4997752;28;20049;-63
2022/08/11 09:15:02;;;;;;;3.58;1.80;;;38.00;74.00;;;;;;4991409;28;20049;-65
2022/08/11 09:18:02;;;;;;;2.13;1.40;;;38.40;73.00;;;;;;4998971;28;20509;-64
2022/08/11 09:20:34;;;;;;;2.03;1.42;;;38.60;71.90;;;;;;5003891;28;20056;-64
2022/08/11 09:28:42;;;;;;;2.53;1.38;;;38.80;71.60;;;;;;5001322;28;20108;-63
2022/08/11 09:31:10;;;;;;;4.93;1.65;;;38.70;70.80;;;;;;5004149;28;20045;-64
2022/08/11 09:33:37;;;;;;;3.67;1.67;;;38.60;70.80;;;;;;5007268;28;20115;-63
2022/08/11 09:40:27;;;;;;;5.15;1.83;;;38.30;70.90;;;;;;5002948;28;20712;-62
2022/08/11 09:41:36;;;;;;;4.65;1.50;;;38.20;69.40;;;;;;4998722;28;20057;-65
2022/08/11 09:46:48;;;;;;;2.95;1.60;;;38.20;68.80;;;;;;5001906;28;20056;-62
2022/08/11 09:49:18;;;;;;;3.58;1.55;;;37.50;68.50;;;;;;5003907;28;20072;-65
2022/08/11 09:51:44;;;;;;;8.40;1.80;;;37.00;68.80;;;;;;5005418;28;20050;-62
2022/08/11 09:54:10;;;;;;;6.13;1.77;;;36.60;69.60;;;;;;5001006;28;20527;-63
2022/08/11 09:59:21;;;;;;;7.68;1.70;;;35.90;69.50;;;;;;4997267;28;20057;-66
2022/08/11 10:01:53;;;;;;;2.67;1.65;;;35.40;69.80;;;;;;4992621;28;20558;-64
2022/08/11 10:04:30;;;;;;;5.88;1.80;;;35.10;69.40;;;;;;4993809;28;20072;-64
2022/08/11 10:07:02;;;;;;;6.38;2.83;;;34.90;70.00;;;;;;5001300;28;20408;-63
2022/08/11 10:09:32;;;;;;;;;;;34.40;70.00;;;;;;4983646;28;20050;-62
2022/08/11 10:12:01;;;;;;;3.53;1.67;;;34.10;70.20;;;;;;5003918;28;20186;-62
2022/08/11 10:17:19;;;;;;;3.35;1.60;;;33.80;69.20;;;;;;5004503;28;20053;-62
2022/08/11 10:19:47;;;;;;;3.78;1.67;;;33.60;69.30;;;;;;5004363;28;20057;-62
2022/08/11 10:27:57;;;;;;;4.20;1.80;;;33.30;69.50;;;;;;5004793;28;20054;-66
2022/08/11 10:35:58;;;;;;;3.80;1.67;;;33.30;70.70;;;;;;5012095;28;20050;-63
2022/08/11 10:38:26;;;;;;;3.97;1.60;;;33.40;68.40;;;;;;5012768;28;20050;-66
2022/08/11 10:43:40;;;;;;;1.40;1.27;;;33.60;67.90;;;;;;5004930;28;20104;-62
2022/08/11 10:48:56;;;;;;;3.05;1.50;;;33.60;68.00;;;;;;4994426;28;20080;-62
2022/08/11 10:59:41;;;;;;;4.72;1.70;;;33.30;67.50;;;;;;5005459;28;21465;-64
2022/08/11 11:02:12;;;;;;;4.30;1.50;;;33.10;67.60;;;;;;4999996;28;20100;-63
2022/08/11 11:05:13;;;;;;;2.85;1.52;;;33.10;67.80;;;;;;5003109;28;20717;-63
2022/08/11 11:07:45;;;;;;;10.20;1.80;;;33.00;68.00;;;;;;5000556;28;20064;-62
2022/08/11 11:10:11;;;;;;;3.67;1.90;;;32.90;68.20;;;;;;5005026;28;20069;-62
2022/08/11 11:18:28;;;;;;;3.67;1.80;;;32.50;68.90;;;;;;5009956;28;20060;-63
2022/08/11 11:21:17;;;;;;;4.63;1.80;;;32.20;69.00;;;;;;5009500;28;20041;-63
2022/08/11 11:23:52;;;;;;;3.88;1.88;;;32.10;69.90;;;;;;5007316;28;20107;-63
2022/08/11 11:26:24;;;;;;;4.13;1.83;;;31.90;69.50;;;;;;5002318;28;20084;-63
2022/08/11 11:29:02;;;;;;;3.38;1.70;;;31.80;69.40;;;;;;5005140;28;20115;-66
2022/08/11 11:31:46;;;;;;;3.15;1.77;;;31.90;69.60;;;;;;5002828;28;20053;-64
2022/08/11 11:34:25;;;;;;;2.80;1.77;;;32.10;69.20;;;;;;5006945;28;20052;-64
2022/08/11 11:36:55;;;;;;;3.90;1.75;;;32.20;70.20;;;;;;5006538;28;20054;-63
2022/08/11 11:39:29;;;;;;;3.78;1.80;;;32.00;69.60;;;;;;5003772;28;20108;-62
2022/08/11 11:42:01;;;;;;;3.63;1.92;;;32.00;69.80;;;;;;5001445;28;20046;-62
2022/08/11 11:44:28;;;;;;;4.80;1.77;;;32.20;69.70;;;;;;5008049;28;20139;-62
2022/08/11 11:46:54;;;;;;;3.05;1.63;;;32.30;70.20;;;;;;5005446;28;20042;-63
2022/08/11 11:49:23;;;;;;;2.75;1.38;;;32.30;69.50;;;;;;5001483;28;20073;-63
2022/08/11 11:51:51;;;;;;;5.00;1.50;;;32.10;70.40;;;;;;5008118;28;20046;-62
2022/08/11 11:54:22;;;;;;;3.80;1.58;;;32.00;69.90;;;;;;5009685;28;20034;-62
2022/08/11 11:56:52;;;;;;;3.00;1.60;;;32.00;70.10;;;;;;5008144;28;20112;-63
2022/08/11 12:02:07;;;;;;;3.08;1.48;;;32.10;69.30;;;;;;5007255;28;20184;-63
2022/08/11 12:04:35;;;;;;;3.58;1.60;;;32.00;69.70;;;;;;5003198;28;20080;-63
2022/08/11 12:09:48;;;;;;;5.65;1.65;;;31.80;69.40;;;;;;5003686;28;20054;-64
2022/08/11 12:14:59;;;;;;;5.78;1.63;;;31.60;69.50;;;;;;4996808;28;20460;-62
2022/08/11 12:17:25;;;;;;;4.22;1.65;;;31.60;69.40;;;;;;5008011;28;20072;-63
2022/08/11 12:19:52;;;;;;;2.53;1.42;;;31.50;69.90;;;;;;5004966;28;20038;-62
2022/08/11 12:27:48;;;;;;;3.13;1.50;;;31.60;70.10;;;;;;5005512;28;20072;-63
2022/08/11 12:30:14;;;;;;;3.95;1.52;;;31.60;69.90;;;;;;5004409;28;20042;-61
2022/08/11 12:32:42;;;;;;;3.22;1.50;;;31.60;69.80;;;;;;5007615;28;20056;-65
2022/08/11 12:35:08;;;;;;;4.60;1.50;;;31.60;70.60;;;;;;5007352;28;20060;-62
2022/08/11 12:37:44;;;;;;;2.67;1.50;;;31.60;71.00;;;;;;5003186;28;20483;-61
2022/08/11 12:45:57;;;;;;;3.28;1.60;;;31.60;70.50;;;;;;5003645;28;20085;-62
2022/08/11 12:54:09;;;;;;;2.17;1.40;;;31.40;70.50;;;;;;5000774;28;20053;-63
2022/08/11 13:05:10;;;;;;;4.38;1.67;;;31.20;70.00;;;;;;4994675;28;20050;-63
2022/08/11 13:07:39;;;;;;;2.45;1.52;;;31.20;70.50;;;;;;5006331;28;20053;-63
2022/08/11 13:10:07;;;;;;;4.55;1.55;;;31.10;70.50;;;;;;5005390;28;20053;-63
2022/08/11 13:12:47;;;;;;;6.55;1.77;;;31.20;70.80;;;;;;4987134;28;20065;-62
2022/08/11 13:15:21;;;;;;;4.75;1.50;;;31.20;70.30;;;;;;4986496;28;20128;-62
2022/08/11 13:17:52;;;;;;;3.92;1.60;;;31.20;69.90;;;;;;5004878;28;20046;-62
2022/08/11 13:20:23;;;;;;;3.20;1.42;;;31.10;69.70;;;;;;5003171;28;20034;-62
2022/08/11 13:22:51;;;;;;;2.35;1.42;;;31.00;69.60;;;;;;5001061;28;20058;-62
2022/08/11 13:25:18;;;;;;;4.45;1.70;;;31.00;69.70;;;;;;5005812;28;20045;-62
2022/08/11 13:27:46;;;;;;;3.28;1.60;;;31.00;69.90;;;;;;5004686;28;20072;-65
2022/08/11 13:33:00;;;;;;;1.48;1.30;;;31.10;69.60;;;;;;5003971;28;20073;-62
2022/08/11 13:35:33;;;;;;;2.63;1.30;;;31.00;69.80;;;;;;4990441;28;20123;-62
2022/08/11 13:38:02;;;;;;;4.13;1.50;;;30.90;69.70;;;;;;5005640;28;20132;-63
2022/08/11 13:40:29;;;;;;;3.72;1.67;;;30.80;69.30;;;;;;5006550;28;20379;-62
2022/08/11 13:42:57;;;;;;;2.58;1.30;;;30.80;69.60;;;;;;5006953;28;20058;-63
2022/08/11 13:45:24;;;;;;;3.80;1.40;;;30.90;68.60;;;;;;5006040;28;20152;-62
2022/08/11 13:47:53;;;;;;;5.55;1.70;;;30.90;68.60;;;;;;5006956;28;20507;-63
2022/08/11 13:50:20;;;;;;;3.72;1.27;;;30.90;69.00;;;;;;5006876;28;20073;-63
2022/08/11 13:52:48;;;;;;;4.13;1.70;;;30.90;69.10;;;;;;5007561;28;20054;-63
2022/08/11 13:55:20;;;;;;;3.22;1.58;;;30.90;70.60;;;;;;5006365;28;20038;-62
2022/08/11 13:57:53;;;;;;;2.65;1.48;;;30.90;69.40;;;;;;5007293;28;20412;-63
2022/08/11 14:00:19;;;;;;;2.63;1.60;;;30.90;69.80;;;;;;5003011;28;20499;-63
2022/08/11 14:02:48;;;;;;;2.35;1.50;;;30.90;69.90;;;;;;5006713;28;20050;-62
2022/08/11 14:05:18;;;;;;;1.75;1.25;;;30.80;69.40;;;;;;5006904;28;20495;-62
2022/08/11 14:07:50;;;;;;;4.72;1.60;;;30.80;70.00;;;;;;5006515;28;20046;-62
2022/08/11 14:10:19;;;;;;;3.60;1.58;;;30.70;69.60;;;;;;4989748;28;20102;-60
2022/08/11 14:15:41;;;;;;;1.65;1.30;;;30.70;69.60;;;;;;5006950;28;20410;-62
2022/08/11 14:18:40;;;;;;;3.50;1.67;;;30.70;69.90;;;;;;5015086;28;20084;-62
2022/08/11 14:23:54;;;;;;;2.97;1.50;;;30.40;70.60;;;;;;5009507;28;20046;-63
2022/08/11 14:26:26;;;;;;;4.13;1.50;;;30.40;71.40;;;;;;5009292;28;20069;-60
2022/08/11 14:29:03;;;;;;;4.15;1.92;;;30.30;73.20;;;;;;5008024;28;20060;-64
2022/08/11 14:31:31;;;;;;;7.15;1.73;;;30.30;73.50;;;;;;5008117;28;20417;-62
2022/08/11 14:34:01;;;;;;;4.95;1.80;;;30.30;74.70;;;;;;5008204;28;20481;-63
2022/08/11 14:36:40;;;;;;;5.50;1.65;;;30.30;74.80;;;;;;5008860;28;20383;-62
2022/08/11 14:39:11;;;;;;;5.50;1.60;;;30.30;74.40;;;;;;5008558;28;20050;-62
2022/08/11 14:47:15;;;;;;;3.83;1.70;;;30.30;74.70;;;;;;5001162;28;20054;-62
2022/08/11 14:49:42;;;;;;;3.22;1.70;;;30.20;74.50;;;;;;5008799;28;20050;-62
2022/08/11 14:52:14;;;;;;;2.70;1.80;;;30.30;74.50;;;;;;5008916;28;20068;-62
2022/08/11 14:57:29;;;;;;;3.08;1.60;;;30.10;73.90;;;;;;5004233;28;20097;-62
2022/08/11 14:59:59;;;;;;;4.22;1.63;;;30.00;74.00;;;;;;5005745;28;20056;-62
2022/08/11 15:05:27;;;;;;;3.08;1.70;;;29.80;74.60;;;;;;4922319;29;20130;-64
2022/08/11 15:07:55;;;;;;;2.42;1.60;;;29.80;74.60;;;;;;4993319;28;20053;-62
2022/08/11 15:10:21;;;;;;;5.05;1.60;;;29.80;74.50;;;;;;5002266;28;20117;-62
2022/08/11 15:12:48;;;;;;;4.97;1.80;;;29.90;74.80;;;;;;5008722;28;20116;-62
2022/08/11 15:18:06;;;;;;;4.07;1.80;;;29.70;74.90;;;;;;5010690;28;20526;-65
2022/08/11 15:26:12;;;;;;;3.97;1.50;;;29.60;74.30;;;;;;5011297;28;20057;-65
2022/08/11 15:37:26;;;;;;;3.35;1.60;;;29.40;75.20;;;;;;5008919;28;20135;-61
2022/08/11 15:46:02;;;;;;;4.18;1.90;;;29.40;76.20;;;;;;4973463;28;20089;-61
2022/08/11 15:48:39;;;;;;;5.75;1.80;;;29.40;76.40;;;;;;4997204;28;20070;-61
2022/08/11 15:51:21;;;;;;;3.30;1.80;;;29.40;76.70;;;;;;5011128;28;20116;-64
2022/08/11 15:53:52;;;;;;;3.90;1.75;;;29.30;76.70;;;;;;5005063;28;20042;-61
2022/08/11 15:56:19;;;;;;;7.28;2.13;;;29.20;76.70;;;;;;5009629;28;20107;-61
2022/08/11 16:04:23;;;;;;;6.57;2.20;;;29.00;76.40;;;;;;5009568;28;20056;-61
2022/08/11 16:07:10;;;;;;;5.43;2.30;;;28.90;76.50;;;;;;5008285;28;20045;-62
2022/08/11 16:09:54;;;;;;;6.72;1.80;;;28.90;77.20;;;;;;4995985;28;20058;-61
2022/08/11 16:12:23;;;;;;;3.45;1.77;;;28.80;77.30;;;;;;5005846;28;20128;-64
2022/08/11 16:17:46;;;;;;;5.88;2.03;;;28.70;77.30;;;;;;5001723;28;20107;-62
2022/08/11 16:20:14;;;;;;;3.50;1.70;;;28.70;77.60;;;;;;5004047;28;20116;-62
2022/08/11 16:22:43;;;;;;;7.15;2.00;;;28.70;77.60;;;;;;5002048;28;20134;-61
2022/08/11 16:25:13;;;;;;;3.10;1.65;;;28.70;77.50;;;;;;5006125;28;20045;-63
2022/08/11 16:27:42;;;;;;;6.18;2.15;;;28.80;77.40;;;;;;5009001;28;20116;-61
2022/08/11 16:30:09;;;;;;;4.32;1.77;;;28.80;77.30;;;;;;5004620;28;20076;-64
2022/08/11 16:32:39;;;;;;;2.92;1.80;;;28.80;77.10;;;;;;5008241;28;20103;-61
2022/08/11 16:40:50;;;;;;;4.32;1.90;;;28.60;77.50;;;;;;5001631;28;20046;-62
2022/08/11 16:48:52;;;;;;;5.03;1.90;;;28.50;78.40;;;;;;4999920;28;20104;-62
2022/08/11 16:51:22;;;;;;;3.65;1.90;;;28.40;78.80;;;;;;4992594;28;20380;-62
2022/08/11 16:53:49;;;;;;;7.72;2.50;;;28.40;79.00;;;;;;4996072;28;20054;-63
2022/08/11 16:56:23;;;;;;;3.70;1.92;;;28.30;80.00;;;;;;4995590;28;20049;-63
2022/08/11 17:01:38;;;;;;;5.22;2.33;;;28.30;80.00;;;;;;5008075;28;20072;-65
2022/08/11 17:18:09;;;;;;;3.63;2.10;;;28.20;81.70;;;;;;4994641;28;20089;-63
2022/08/11 17:20:37;;;;;;;5.82;2.25;;;28.10;81.80;;;;;;5007760;28;20535;-62
2022/08/11 17:25:50;;;;;;;5.10;2.10;;;27.90;82.00;;;;;;5006896;28;20495;-63
2022/08/11 17:28:17;;;;;;;5.40;1.95;;;28.00;82.50;;;;;;5003240;28;20062;-66
2022/08/11 17:36:17;;;;;;;6.03;2.10;;;28.00;83.00;;;;;;5008806;28;20093;-62
2022/08/11 17:38:44;;;;;;;5.10;2.30;;;27.90;83.30;;;;;;5009187;28;20046;-66
2022/08/11 17:49:35;;;;;;;6.43;2.33;;;27.80;83.40;;;;;;5008060;28;20054;-63
2022/08/11 18:00:21;;;;;;;4.63;2.00;;;27.50;83.20;;;;;;5001454;28;20147;-64
2022/08/11 18:05:34;;;;;;;3.78;1.85;;;27.40;83.50;;;;;;5006337;28;20057;-61
